Flugwetter

[source: ADDS]
METAR
LOWL 182020Z 10005KT 5000 -SN SCT012 BKN017 01/M00 Q1019 TEMPO 2000 SN BKN012 =
TAF LOWL 181715Z 1818/1918 08004KT 9999 SCT025 BKN060 TX03/1913Z TN00/1900Z BECMG 1818/1820 8000 -SN SCT010 BKN020 PROB30 TEMPO 1821/1903 2000 SN OVC007 BECMG 1906/1909 10010KT 9999 NSW TEMPO 1911/1918 10017G27KT SCT015
TAF
TAF LOWL 181715Z 1818/1918 08004KT 9999 SCT025 BKN060 TX03/1913Z TN00/1900Z BECMG 1818/1820 8000 -SN SCT010 BKN020 PROB30 TEMPO 1821/1903 2000 SN OVC007 BECMG 1906/1909 10010KT 9999 NSW TEMPO 1911/1918 10017G27KT SCT015 =